Flight Track Log - Related Links

Times and Time Zones

All times are in EDT time to prevent confusion due to time zone crossing. See the SWA2975 flight status page for this flight to view local times or setup timezone preferences in your user account.


Time Position Orientation Groundspeed Altitude Reporting Facility
EDT Latitude Longitude Course Direction KTS MPH feet Rate Location/Type
Sat 04:49:52 PM 27.9500 -82.5500 360° North 184 212 800  Level Tampa TRACON
Sat 04:50:04 PM 27.9500 -82.5500 192° South 176 203 1,200 2,417 Climbing Tampa TRACON
Sat 04:51:04 PM 27.8833 -82.5667 192° South 235 270 3,700 2,381 Climbing Tampa TRACON
Sat 04:52:10 PM 27.8667 -82.6333 254° West 254 292 6,200 2,134 Climbing Tampa TRACON
Sat 04:54:18 PM 28.0411 -82.6197 North 306 352 10,600 2,274 Climbing Miami Center
Sat 04:55:20 PM 28.1431 -82.6131 North 350 403 13,400 2,465 Climbing Miami Center
Sat 04:56:27 PM 28.2622 -82.6097 North 351 404 15,900 2,126 Climbing Jacksonville Center
Sat 04:57:27 PM 28.3686 -82.6072 North 364 419 17,900 1,900 Climbing Jacksonville Center
Sat 04:58:27 PM 28.4792 -82.5997 North 375 432 19,700 1,750 Climbing Jacksonville Center
Sat 04:59:27 PM 28.5919 -82.5947 North 393 452 21,400 1,700 Climbing Jacksonville Center
Sat 05:00:27 PM 28.7047 -82.5919 North 398 458 23,100 1,550 Climbing Jacksonville Center
Sat 05:01:27 PM 28.8217 -82.6106 352° North 408 470 24,500 1,400 Climbing Jacksonville Center
Sat 05:02:27 PM 28.9322 -82.6244 354° North 425 489 25,900 1,250 Climbing Jacksonville Center
Sat 05:03:27 PM 29.0514 -82.6431 352° North 425 489 27,000 1,250 Climbing Jacksonville Center
Sat 05:04:27 PM 29.1725 -82.6572 354° North 430 495 28,400 2,000 Climbing Jacksonville Center
Sat 05:05:27 PM 29.2892 -82.6736 353° North 430 495 31,000 2,000 Climbing Jacksonville Center
Sat 05:06:27 PM 29.3978 -82.6875 354° North 409 471 32,400 1,150 Climbing Jacksonville Center
Sat 05:07:27 PM 29.5211 -82.7136 350° North 403 464 33,300 950 Climbing Jacksonville Center
Sat 05:08:27 PM 29.6297 -82.7325 351° North 403 464 34,300 850 Climbing Jacksonville Center
Sat 05:09:27 PM 29.7403 -82.7228 North 397 457 35,000 350 Climbing Jacksonville Center
Sat 05:10:27 PM 29.8550 -82.7106 North 408 470 35,000  Level Jacksonville Center
Sat 05:11:27 PM 29.9761 -82.7128 359° North 424 488 35,000  Level Jacksonville Center
Sat 05:12:27 PM 30.0847 -82.7269 354° North 424 488 35,000 -50 Level Jacksonville Center
Sat 05:13:27 PM 30.2039 -82.7483 351° North 424 488 34,900  Descending Jacksonville Center
Sat 05:14:27 PM 30.3167 -82.7842 345° North 424 488 35,000 50 Climbing Jacksonville Center
Sat 05:15:27 PM 30.4336 -82.8131 348° North 424 488 35,000  Level Jacksonville Center
Sat 05:16:27 PM 30.5589 -82.8467 347° North 424 488 35,000  Level Jacksonville Center
Sat 05:17:27 PM 30.6758 -82.8733 349° North 424 488 35,000  Level Jacksonville Center
Sat 05:18:27 PM 30.7928 -82.8950 351° North 424 488 35,000  Level Jacksonville Center
Sat 05:19:27 PM 30.9097 -82.9144 352° North 424 488 35,000  Level Jacksonville Center
Sat 05:21:00 PM 31.0758 -82.9406 352° North 438 504 35,000  Level Atlanta Center
Sat 05:22:00 PM 31.1931 -82.9586 352° North 426 490 35,000  Level Atlanta Center
Sat 05:23:00 PM 31.3081 -82.9792 351° North 420 483 35,000 350 Level Atlanta Center
Sat 05:24:00 PM 31.4228 -82.9972 352° North 420 483 35,700 500 Climbing Atlanta Center
Sat 05:25:00 PM 31.5400 -83.0203 350° North 420 483 36,000 150 Climbing Atlanta Center
Sat 05:26:00 PM 31.6569 -83.0411 351° North 420 483 36,000  Level Atlanta Center
Sat 05:27:00 PM 31.7719 -83.0592 352° North 425 489 36,000  Level Atlanta Center
Sat 05:28:00 PM 31.8869 -83.0800 351° North 425 489 36,000  Level Atlanta Center
Sat 05:29:00 PM 32.0039 -83.1008 351° North 425 489 36,000  Level Atlanta Center
Sat 05:30:00 PM 32.1189 -83.1217 351° North 420 483 36,000 50 Level Atlanta Center
Sat 05:31:00 PM 32.2339 -83.1425 351° North 414 476 36,100  Climbing Atlanta Center
Sat 05:32:00 PM 32.3467 -83.1611 352° North 409 471 36,000 -50 Descending Atlanta Center
Sat 05:33:00 PM 32.4617 -83.1822 351° North 409 471 36,000  Level Atlanta Center
Sat 05:34:00 PM 32.5744 -83.2008 352° North 414 476 36,000  Level Atlanta Center
Sat 05:35:00 PM 32.6914 -83.2244 350° North 409 471 36,000  Level Atlanta Center
Sat 05:36:00 PM 32.8022 -83.2431 352° North 409 471 36,000  Level Atlanta Center
Sat 05:37:00 PM 32.9192 -83.2619 352° North 409 471 36,000  Level Atlanta Center
Sat 05:38:00 PM 33.0342 -83.2831 351° North 409 471 36,000  Level Atlanta Center
Sat 05:39:00 PM 33.1450 -83.3019 352° North 403 464 36,000  Level Atlanta Center
Sat 05:40:00 PM 33.2558 -83.3208 352° North 403 464 36,000  Level Atlanta Center
Sat 05:41:00 PM 33.3644 -83.3425 351° North 403 464 36,000  Level Atlanta Center
Sat 05:42:00 PM 33.4750 -83.3614 352° North 403 464 36,000  Level Atlanta Center
Sat 05:43:00 PM 33.5839 -83.3831 351° North 398 458 36,000  Level Atlanta Center
Sat 05:44:00 PM 33.6944 -83.4022 352° North 398 458 36,000  Level Atlanta Center
Sat 05:45:00 PM 33.8053 -83.4214 352° North 393 452 36,000  Level Atlanta Center
Sat 05:46:00 PM 33.9117 -83.4381 353° North 393 452 36,000  Level Atlanta Center
Sat 05:47:00 PM 34.0225 -83.4597 351° North 393 452 36,000  Level Atlanta Center
Sat 05:48:00 PM 34.1311 -83.4817 351° North 393 452 36,000  Level Atlanta Center
Sat 05:49:00 PM 34.2417 -83.5011 352° North 393 452 36,000  Level Atlanta Center
Sat 05:50:00 PM 34.3547 -83.5206 352° North 398 458 36,000  Level Atlanta Center
Sat 05:51:00 PM 34.4633 -83.5425 351° North 398 458 36,000  Level Atlanta Center
Sat 05:52:00 PM 34.5739 -83.5619 352° North 393 452 36,000  Level Atlanta Center
Sat 05:53:00 PM 34.6825 -83.5817 352° North 393 452 36,000  Level Atlanta Center
Sat 05:54:00 PM 34.7911 -83.6011 352° North 393 452 36,000  Level Atlanta Center
Sat 05:55:00 PM 34.9017 -83.6208 352° North 393 452 36,000  Level Atlanta Center
Sat 05:56:00 PM 35.0042 -83.6458 349° North 388 447 36,000  Level Atlanta Center
Sat 05:57:00 PM 35.1128 -83.6656 352° North 388 447 36,000  Level Atlanta Center
Sat 05:58:00 PM 35.2211 -83.6853 352° North 388 447 36,000  Level Atlanta Center
Sat 05:59:00 PM 35.3278 -83.7053 351° North 388 447 36,000  Level Atlanta Center
Sat 06:00:00 PM 35.4342 -83.7253 351° North 388 447 36,000  Level Atlanta Center
Sat 06:01:00 PM 35.5406 -83.7453 351° North 388 447 36,000  Level Atlanta Center
Sat 06:02:00 PM 35.6450 -83.7653 351° North 388 447 36,000  Level Atlanta Center
Sat 06:03:00 PM 35.7514 -83.7881 350° North 388 447 36,000  Level Atlanta Center
Sat 06:04:37 PM 35.9181 -83.8156 352° North 384 442 36,000  Level Indianapolis Center
Sat 06:05:38 PM 36.0397 -83.8383 351° North 384 442 36,000  Level Indianapolis Center
Sat 06:06:40 PM 36.1428 -83.8583 351° North 383 441 36,000  Level Indianapolis Center
Sat 06:07:42 PM 36.2472 -83.8778 351° North 382 440 36,000  Level Indianapolis Center
Sat 06:08:44 PM 36.3514 -83.8986 351° North 382 440 36,000  Level Indianapolis Center
Sat 06:09:45 PM 36.4558 -83.9186 351° North 382 440 36,000  Level Indianapolis Center
Sat 06:10:47 PM 36.5661 -83.9411 351° North 382 440 36,000 -48 Level Indianapolis Center
Sat 06:11:49 PM 36.6711 -83.9614 351° North 381 438 35,900 -634 Descending Indianapolis Center
Sat 06:12:50 PM 36.7747 -83.9817 351° North 380 437 34,700 -1,171 Descending Indianapolis Center
Sat 06:13:52 PM 36.8939 -84.0058 351° North 373 429 33,500 -1,065 Descending Indianapolis Center
Sat 06:14:54 PM 36.9975 -84.0264 351° North 373 429 32,500 -726 Descending Indianapolis Center
Sat 06:15:56 PM 37.1053 -84.0469 351° North 383 441 32,000 -244 Descending Indianapolis Center
Sat 06:16:57 PM 37.2147 -84.0689 351° North 392 451 32,000  Level Indianapolis Center
Sat 06:17:59 PM 37.3256 -84.0911 351° North 397 457 32,000  Level Indianapolis Center
Sat 06:19:01 PM 37.4378 -84.1125 351° North 401 461 32,000  Level Indianapolis Center
Sat 06:20:02 PM 37.5492 -84.1353 351° North 402 463 32,000  Level Indianapolis Center
Sat 06:21:04 PM 37.6797 -84.1614 351° North 402 463 32,000 -242 Level Indianapolis Center
Sat 06:22:06 PM 37.7908 -84.1764 354° North 402 463 31,500 -732 Descending Indianapolis Center
Sat 06:23:07 PM 37.8994 -84.1936 353° North 397 457 30,500 -927 Descending Indianapolis Center
Sat 06:24:09 PM 38.0094 -84.2119 353° North 397 457 29,600 -919 Descending Indianapolis Center
Sat 06:25:11 PM 38.1239 -84.2283 354° North 405 466 28,600 -968 Descending Indianapolis Center
Sat 06:26:13 PM 38.2389 -84.2458 353° North 410 472 27,600 -1,024 Descending Indianapolis Center
Sat 06:27:14 PM 38.3519 -84.2631 353° North 411 473 26,500 -2,244 Descending Indianapolis Center
Sat 06:28:16 PM 38.4744 -84.2817 353° North 385 443 23,000 -3,871 Descending Indianapolis Center
Sat 06:29:18 PM 38.5850 -84.3019 352° North 393 452 18,500 -3,415 Descending Indianapolis Center
Sat 06:30:19 PM 38.6917 -84.3292 349° North 383 441 16,000 -2,293 Descending Indianapolis Center
Sat 06:31:21 PM 38.7836 -84.3697 341° North 353 406 13,800 -2,323 Descending Indianapolis Center
Sat 06:32:23 PM 38.8778 -84.3817 354° North 348 400 11,200 -1,756 Descending Indianapolis Center
Sat 06:33:24 PM 38.9722 -84.3656 North 343 395 10,200 -706 Descending Indianapolis Center
Sat 06:34:05 PM 39.0417 -84.3547 North 317 365 10,000 -290 Descending Indianapolis Center
Sat 06:34:26 PM 39.0597 -84.3522 North 322 371 9,900  Descending Indianapolis Center
Sat 06:35:06 PM 39.1333 -84.3442 North 324 373 10,000  Climbing Indianapolis Center
Sat 06:35:27 PM 39.1503 -84.3381 16° North 323 372 9,900  Descending Indianapolis Center
Sat 06:36:07 PM 39.2233 -84.3278 North 328 377 10,000  Climbing Indianapolis Center
Sat 06:36:29 PM 39.2408 -84.3242 North 326 375 9,900  Descending Indianapolis Center
Sat 06:37:07 PM 39.3111 -84.3136 North 323 372 10,000  Climbing Indianapolis Center
Sat 06:37:31 PM 39.3481 -84.3072 North 326 375 9,900  Descending Indianapolis Center
Sat 06:38:08 PM 39.4011 -84.3000 North 321 369 10,000  Climbing Indianapolis Center
Sat 06:38:32 PM 39.4364 -84.2939 North 324 373 9,900 -269 Descending Indianapolis Center
Sat 06:39:15 PM 39.4997 -84.2822 North 314 361 9,700 -484 Descending Indianapolis Center
Sat 06:39:34 PM 39.5211 -84.2750 15° North 315 362 9,400 -1,254 Descending Indianapolis Center
Sat 06:40:22 PM 39.5817 -84.2453 21° North 283 326 8,300 -1,377 Descending Indianapolis Center
Sat 06:40:35 PM 39.5947 -84.2386 21° North 291 335 8,000 -1,680 Descending Indianapolis Center
Sat 06:41:37 PM 39.6694 -84.2047 19° North 288 331 6,200 -1,056 Descending Indianapolis Center
Sat 06:42:23 PM 39.7344 -84.1744 20° North 280 322 6,100 -98 Descending Indianapolis Center
Sat 06:42:38 PM 39.7428 -84.1683 29° Northeast 284 327 6,100 -78 Level Indianapolis Center
Sat 06:43:40 PM 39.8167 -84.1206 26° Northeast 300 345 6,000 -57 Descending Indianapolis Center
Sat 06:44:24 PM 39.8650 -84.0531 47° Northeast 307 353 6,000  Level Indianapolis Center
Sat 06:44:41 PM 39.8744 -84.0414 43° Northeast 303 349 6,000 -590 Level Indianapolis Center
Sat 06:45:25 PM 39.9169 -83.9803 48° Northeast 258 297 5,400 -774 Descending Indianapolis Center
Sat 06:45:43 PM 39.9253 -83.9694 45° Northeast 288 331 5,200 -1,469 Descending Indianapolis Center
Sat 06:46:14 PM 39.9658 -83.9533 17° North 233 268 4,200 -1,279 Descending Indianapolis Center
Sat 06:46:44 PM 39.9817 -83.9669 327° Northwest 256 295 3,900 -1,091 Descending Indianapolis Center
Sat 06:47:20 PM 39.9806 -84.0158 268° West 177 204 3,000 -885 Descending Indianapolis Center
Sat 06:47:45 PM 39.9775 -84.0383 260° West 194 223 3,000 109 Level Indianapolis Center
Sat 06:48:15 PM 39.9733 -84.0639 258° West 134 154 3,100  Climbing Indianapolis Center
Sat 06:48:47 PM 39.9653 -84.0850 244° Southwest 159 183 3,000 -218 Descending Indianapolis Center
Sat 06:49:10 PM 39.9547 -84.1017 230° Southwest 126 145 2,900 -590 Descending Indianapolis Center
Sat 06:49:48 PM 39.9436 -84.1242 237° Southwest 141 162 2,400 -600 Descending Indianapolis Center
Sat 06:50:50 PM 39.9206 -84.1686 236° Southwest 138 159 1,900 -651 Descending Indianapolis Center
Sat 06:51:11 PM 39.9125 -84.1817 231° Southwest 137 158 1,500 -1,143 Descending Indianapolis Center

Login

Don't have an account? Register now (free) for customized features, flight alerts, and more!